createdAt,value
2018-11-04T00:01:36.332Z,31.57
2018-11-04T00:04:05.324Z,33.47
2018-11-04T00:06:34.076Z,38.57
2018-11-04T00:09:02.951Z,35.87
2018-11-04T00:11:31.782Z,37.33
2018-11-04T00:14:00.575Z,36.47
2018-11-04T00:16:36.182Z,35.27
2018-11-04T00:19:05.404Z,39.50
2018-11-04T00:21:34.312Z,35.50
2018-11-04T00:24:03.233Z,40.13
2018-11-04T00:26:32.162Z,36.30
2018-11-04T00:29:00.926Z,40.03
2018-11-04T00:31:29.718Z,37.00
2018-11-04T00:33:58.466Z,35.23
2018-11-04T00:36:27.255Z,32.90
2018-11-04T00:38:56.039Z,36.97
2018-11-04T00:41:24.884Z,36.67
2018-11-04T00:43:53.808Z,35.17
2018-11-04T00:46:22.629Z,34.80
2018-11-04T00:48:51.417Z,33.67
2018-11-04T00:51:20.177Z,32.67
2018-11-04T00:53:48.974Z,37.27
2018-11-04T00:56:17.763Z,33.27
2018-11-04T00:58:46.575Z,33.53
2018-11-04T01:01:15.382Z,32.23
2018-11-04T01:03:44.147Z,32.00
2018-11-04T01:06:12.918Z,29.97
2018-11-04T01:08:41.712Z,30.93
2018-11-04T01:11:10.483Z,32.10
2018-11-04T01:13:39.242Z,30.23
2018-11-04T01:16:08.030Z,29.27
2018-11-04T01:18:36.849Z,27.37
2018-11-04T01:21:05.939Z,30.73
2018-11-04T01:23:34.905Z,25.90
2018-11-04T01:26:03.702Z,29.13
2018-11-04T01:28:32.479Z,27.00
2018-11-04T01:31:01.245Z,24.83
2018-11-04T01:33:29.974Z,32.10
2018-11-04T01:35:59.059Z,27.40
2018-11-04T01:38:27.864Z,25.90
2018-11-04T01:40:56.650Z,27.07
2018-11-04T01:43:25.434Z,28.20
2018-11-04T01:45:54.232Z,27.93
2018-11-04T01:48:23.055Z,26.90
2018-11-04T01:51:07.494Z,27.97
2018-11-04T01:53:36.798Z,25.97
2018-11-04T01:56:05.859Z,28.77
2018-11-04T01:58:34.642Z,25.90
2018-11-04T02:01:03.469Z,26.73
2018-11-04T02:03:32.892Z,23.27
2018-11-04T02:06:01.598Z,24.93
2018-11-04T02:08:30.346Z,27.00
2018-11-04T02:10:59.155Z,25.03
2018-11-04T02:13:27.935Z,23.37
2018-11-04T02:15:56.768Z,24.47
2018-11-04T02:18:25.523Z,25.67
2018-11-04T02:20:54.363Z,22.77
2018-11-04T02:23:23.338Z,27.93
2018-11-04T02:25:52.135Z,29.10
2018-11-04T02:28:20.902Z,28.93
2018-11-04T02:30:49.692Z,27.63
2018-11-04T02:33:18.474Z,31.93
2018-11-04T02:35:47.249Z,28.83
2018-11-04T02:38:16.018Z,31.70
2018-11-04T02:40:44.962Z,28.17
2018-11-04T02:43:13.723Z,30.60
2018-11-04T02:45:42.566Z,29.77
2018-11-04T02:48:11.378Z,32.20
2018-11-04T02:50:40.167Z,31.10
2018-11-04T02:53:08.928Z,30.73
2018-11-04T02:55:37.717Z,28.37
2018-11-04T02:58:06.659Z,29.13
2018-11-04T03:00:35.588Z,32.80
2018-11-04T03:03:04.324Z,31.67
2018-11-04T03:05:33.147Z,31.70
2018-11-04T03:08:01.897Z,29.67
2018-11-04T03:10:30.680Z,33.10
2018-11-04T03:12:59.467Z,32.47
2018-11-04T03:15:28.284Z,30.17
2018-11-04T03:17:57.099Z,31.67
2018-11-04T03:20:25.994Z,33.40
2018-11-04T03:22:55.789Z,28.50
2018-11-04T03:25:24.548Z,32.27
2018-11-04T03:27:53.342Z,30.73
2018-11-04T03:30:22.302Z,31.43
2018-11-04T03:32:51.091Z,34.53
2018-11-04T03:35:19.951Z,30.13
2018-11-04T03:37:48.719Z,28.57
2018-11-04T03:40:18.532Z,30.60
2018-11-04T03:42:47.402Z,31.73
2018-11-04T03:45:16.116Z,32.13
2018-11-04T03:47:44.875Z,29.43
2018-11-04T03:50:13.737Z,35.20
2018-11-04T03:52:42.922Z,28.97
2018-11-04T03:55:11.666Z,30.83
2018-11-04T03:57:40.459Z,32.40
2018-11-04T04:00:11.963Z,34.30
2018-11-04T04:02:41.345Z,29.00
2018-11-04T04:05:10.909Z,32.43
2018-11-04T04:07:39.727Z,30.60
2018-11-04T04:10:09.890Z,29.67
2018-11-04T04:12:38.895Z,29.40
2018-11-04T04:15:09.160Z,28.80
2018-11-04T04:17:37.889Z,32.80
2018-11-04T04:20:07.686Z,32.30
2018-11-04T04:22:37.051Z,27.33
2018-11-04T04:25:09.227Z,34.23
2018-11-04T04:27:37.987Z,33.90
2018-11-04T04:30:11.558Z,31.30
2018-11-04T04:32:40.338Z,29.60
2018-11-04T04:35:10.135Z,32.33
2018-11-04T04:37:38.980Z,31.30
2018-11-04T04:40:08.009Z,30.57
2018-11-04T04:42:36.774Z,32.43
2018-11-04T04:45:06.124Z,32.00
2018-11-04T04:47:35.414Z,28.87
2018-11-04T04:50:04.550Z,29.53
2018-11-04T04:52:33.399Z,29.87
2018-11-04T04:55:02.408Z,33.57
2018-11-04T04:57:31.208Z,27.57
2018-11-04T04:59:59.990Z,28.77
2018-11-04T05:02:28.774Z,28.83
2018-11-04T05:04:57.684Z,29.00
2018-11-04T05:07:26.537Z,28.90
2018-11-04T05:09:55.312Z,29.50
2018-11-04T05:12:24.085Z,30.73
2018-11-04T05:14:52.846Z,31.50
2018-11-04T05:17:21.634Z,32.97
2018-11-04T05:19:50.413Z,26.97
2018-11-04T05:22:19.183Z,30.90
2018-11-04T05:24:47.954Z,29.97
2018-11-04T05:27:16.779Z,27.67
2018-11-04T05:29:45.547Z,31.60
2018-11-04T05:32:14.318Z,29.93
2018-11-04T05:34:43.054Z,28.80
2018-11-04T05:37:11.803Z,29.37
2018-11-04T05:39:40.569Z,29.53
2018-11-04T05:42:09.411Z,26.33
2018-11-04T05:44:38.406Z,32.57
2018-11-04T05:47:07.914Z,28.53
2018-11-04T05:49:36.881Z,27.83
2018-11-04T05:52:05.688Z,31.20
2018-11-04T05:54:34.537Z,32.70
2018-11-04T05:57:03.357Z,35.43
2018-11-04T05:59:32.172Z,30.47
2018-11-04T06:02:01.057Z,29.33
2018-11-04T06:04:30.461Z,26.47
2018-11-04T06:07:00.317Z,29.67
2018-11-04T06:09:29.750Z,33.07
2018-11-04T06:11:58.564Z,28.90
2018-11-04T06:14:27.436Z,34.57
2018-11-04T06:16:56.371Z,30.43
2018-11-04T06:19:26.119Z,27.40
2018-11-04T06:21:55.115Z,31.80
2018-11-04T06:24:24.048Z,31.77
2018-11-04T06:26:52.841Z,26.53
2018-11-04T06:29:21.994Z,28.83
2018-11-04T06:31:50.787Z,32.57
2018-11-04T06:34:19.698Z,37.27
2018-11-04T06:36:48.710Z,31.27
2018-11-04T06:39:18.308Z,25.00
2018-11-04T06:41:47.110Z,23.70
2018-11-04T06:44:16.138Z,23.07
2018-11-04T06:46:44.919Z,22.57
2018-11-04T06:49:13.881Z,21.97
2018-11-04T06:51:42.823Z,25.17
2018-11-04T06:54:11.913Z,23.53
2018-11-04T06:56:40.763Z,22.00
2018-11-04T06:59:09.578Z,23.03
2018-11-04T07:01:38.440Z,23.53
2018-11-04T07:04:17.257Z,21.13
2018-11-04T07:06:46.582Z,21.20
2018-11-04T07:09:16.483Z,24.03
2018-11-04T07:11:46.262Z,25.27
2018-11-04T07:14:15.608Z,18.83
2018-11-04T07:16:44.783Z,22.40
2018-11-04T07:19:14.327Z,20.33
2018-11-04T07:21:43.242Z,19.97
2018-11-04T07:24:12.452Z,19.23
2018-11-04T07:26:41.786Z,20.53
2018-11-04T07:29:10.770Z,20.87
2018-11-04T07:31:39.670Z,20.03
2018-11-04T07:34:08.635Z,22.60
2018-11-04T07:36:37.459Z,16.33
2018-11-04T07:39:09.431Z,19.77
2018-11-04T07:41:38.203Z,21.93
2018-11-04T07:44:07.021Z,19.90
2018-11-04T07:46:35.815Z,23.03
2018-11-04T07:49:05.162Z,24.47
2018-11-04T07:51:33.970Z,21.47
2018-11-04T07:54:02.922Z,21.03
2018-11-04T07:56:31.714Z,19.07
2018-11-04T07:59:00.757Z,21.30
2018-11-04T08:01:29.802Z,21.80
2018-11-04T08:03:58.591Z,18.00
2018-11-04T08:06:27.339Z,19.87
2018-11-04T08:08:56.115Z,21.43
2018-11-04T08:11:24.916Z,17.70
2018-11-04T08:13:58.590Z,17.77
2018-11-04T08:16:27.677Z,20.13
2018-11-04T08:18:56.471Z,21.43
2018-11-04T08:21:25.389Z,18.97
2018-11-04T08:23:54.319Z,19.47
2018-11-04T08:26:23.122Z,18.93
2018-11-04T08:28:51.923Z,18.60
2018-11-04T08:31:20.763Z,19.00
2018-11-04T08:33:49.604Z,17.83
2018-11-04T08:36:18.389Z,18.13
2018-11-04T08:38:47.196Z,19.53
2018-11-04T08:41:16.070Z,19.03
2018-11-04T08:46:25.383Z,22.80
2018-11-04T08:48:54.171Z,19.30
2018-11-04T08:51:22.945Z,17.50
2018-11-04T08:53:51.744Z,16.53
2018-11-04T08:56:20.579Z,17.60
2018-11-04T08:58:49.419Z,16.63
2018-11-04T09:01:18.320Z,18.73
2018-11-04T09:03:47.144Z,19.67
2018-11-04T09:06:16.048Z,17.70
2018-11-04T09:08:45.168Z,21.30
2018-11-04T09:11:14.105Z,17.93
2018-11-04T09:13:42.969Z,17.73
2018-11-04T09:16:11.894Z,16.43
2018-11-04T09:18:40.860Z,17.93
2018-11-04T09:21:09.732Z,16.67
2018-11-04T09:23:38.646Z,17.03
2018-11-04T09:26:07.751Z,16.63
2018-11-04T09:28:36.480Z,15.77
2018-11-04T09:31:05.392Z,15.00
2018-11-04T09:33:34.302Z,18.00
2018-11-04T09:36:03.180Z,15.83
2018-11-04T09:38:32.031Z,14.70
2018-11-04T09:41:00.784Z,18.07
2018-11-04T09:43:29.546Z,15.70
2018-11-04T09:45:58.347Z,13.07
2018-11-04T09:48:27.165Z,13.53
2018-11-04T09:50:56.747Z,12.97
2018-11-04T09:53:25.519Z,15.23
2018-11-04T09:55:54.354Z,12.80
2018-11-04T09:58:23.114Z,13.33
2018-11-04T10:00:51.889Z,11.47
2018-11-04T10:03:20.671Z,13.00
2018-11-04T10:05:49.452Z,11.23
2018-11-04T10:08:18.255Z,11.57
2018-11-04T10:10:47.043Z,13.10
2018-11-04T10:13:16.105Z,14.17
2018-11-04T10:15:45.138Z,14.43
2018-11-04T10:18:13.894Z,12.43
2018-11-04T10:20:43.217Z,13.03
2018-11-04T10:23:11.716Z,14.03
2018-11-04T10:25:40.532Z,17.60
2018-11-04T10:28:09.332Z,13.87
2018-11-04T10:30:38.095Z,14.80
2018-11-04T10:33:06.976Z,16.33
2018-11-04T10:35:35.781Z,13.53
2018-11-04T10:38:04.638Z,13.50
2018-11-04T10:40:33.386Z,12.87
2018-11-04T10:43:02.167Z,11.93
2018-11-04T10:45:30.957Z,11.40
2018-11-04T10:47:59.714Z,11.63
2018-11-04T10:50:28.624Z,13.47
2018-11-04T10:52:57.390Z,11.20
2018-11-04T10:55:26.218Z,13.23
2018-11-04T10:57:55.027Z,11.70
2018-11-04T11:00:28.930Z,11.87
2018-11-04T11:02:57.655Z,10.33
2018-11-04T11:05:27.001Z,13.07
2018-11-04T11:07:55.938Z,15.87
2018-11-04T11:10:24.782Z,13.13
2018-11-04T11:12:53.562Z,11.60
2018-11-04T11:15:22.394Z,10.83
2018-11-04T11:17:51.182Z,8.17
2018-11-04T11:20:19.930Z,8.87
2018-11-04T11:22:48.852Z,10.33
2018-11-04T11:25:18.163Z,7.40
2018-11-04T11:27:46.946Z,8.13
2018-11-04T11:30:15.862Z,8.70
2018-11-04T11:32:44.754Z,7.43
2018-11-04T11:35:13.502Z,8.40
2018-11-04T11:37:42.238Z,7.67
2018-11-04T11:40:11.259Z,6.93
2018-11-04T11:42:40.122Z,8.10
2018-11-04T11:45:09.739Z,7.63
2018-11-04T11:47:38.623Z,7.97
2018-11-04T11:50:07.719Z,8.23
2018-11-04T11:52:36.558Z,7.87
2018-11-04T11:55:05.882Z,9.50
2018-11-04T11:57:34.719Z,9.13
2018-11-04T12:00:08.138Z,6.77
2018-11-04T12:02:37.182Z,6.87
2018-11-04T12:05:06.490Z,9.07
2018-11-04T12:07:35.410Z,26.40
2018-11-04T12:10:05.315Z,17.30
2018-11-04T12:12:34.138Z,11.33
2018-11-04T12:15:03.062Z,10.60
2018-11-04T12:17:32.013Z,9.83
2018-11-04T12:20:00.973Z,7.83
2018-11-04T12:22:29.798Z,8.77
2018-11-04T12:24:58.593Z,10.47
2018-11-04T12:27:27.395Z,8.17
2018-11-04T12:29:56.235Z,6.90
2018-11-04T12:32:25.015Z,8.13
2018-11-04T12:34:53.826Z,6.67
2018-11-04T12:37:22.685Z,9.90
2018-11-04T12:39:51.440Z,5.47
2018-11-04T12:42:20.258Z,5.77
2018-11-04T12:44:48.998Z,6.83
2018-11-04T12:47:17.791Z,5.17
2018-11-04T12:49:46.570Z,8.43
2018-11-04T12:52:15.445Z,5.60
2018-11-04T12:54:44.337Z,7.07
2018-11-04T12:57:13.116Z,6.30
2018-11-04T12:59:41.979Z,8.37
2018-11-04T13:02:10.864Z,7.17
2018-11-04T13:04:39.666Z,6.77
2018-11-04T13:07:08.807Z,9.83
2018-11-04T13:09:37.626Z,6.43
2018-11-04T13:12:06.451Z,7.07
2018-11-04T13:14:35.221Z,5.17
2018-11-04T13:17:04.106Z,6.33
2018-11-04T13:19:32.956Z,9.53
2018-11-04T13:22:01.750Z,5.10
2018-11-04T13:24:30.510Z,5.40
2018-11-04T13:26:59.280Z,6.53
2018-11-04T13:29:28.256Z,14.23
2018-11-04T13:31:57.030Z,6.03
2018-11-04T13:34:25.813Z,11.37
2018-11-04T13:36:54.582Z,7.20
2018-11-04T13:39:23.400Z,6.07
2018-11-04T13:41:52.179Z,6.03
2018-11-04T13:44:21.032Z,7.33
2018-11-04T13:46:49.843Z,8.00
2018-11-04T13:49:18.633Z,8.57
2018-11-04T13:51:47.636Z,6.40
2018-11-04T13:54:16.419Z,5.17
2018-11-04T13:56:45.291Z,3.60
2018-11-04T13:59:14.101Z,8.87
2018-11-04T14:01:42.926Z,5.87
2018-11-04T14:04:11.722Z,7.63
2018-11-04T14:06:40.493Z,6.47
2018-11-04T14:09:09.731Z,5.37
2018-11-04T14:11:38.625Z,9.20
2018-11-04T14:14:07.412Z,4.80
2018-11-04T14:16:36.206Z,6.40
2018-11-04T14:19:05.168Z,5.17
2018-11-04T14:21:33.966Z,6.63
2018-11-04T14:24:02.747Z,5.00
2018-11-04T14:26:31.586Z,8.50
2018-11-04T14:29:00.392Z,5.67
2018-11-04T14:31:29.491Z,4.93
2018-11-04T14:33:58.285Z,7.17
2018-11-04T14:36:27.113Z,5.03
2018-11-04T14:38:56.460Z,6.73
2018-11-04T14:41:25.268Z,6.63
2018-11-04T14:43:54.094Z,7.60
2018-11-04T14:46:22.840Z,6.23
2018-11-04T14:48:51.672Z,5.87
2018-11-04T14:51:20.396Z,5.87
2018-11-04T14:53:49.156Z,9.33
2018-11-04T14:56:18.053Z,6.50
2018-11-04T14:58:46.822Z,8.53
2018-11-04T15:01:15.635Z,7.90
2018-11-04T15:03:44.576Z,8.93
2018-11-04T15:06:13.336Z,8.37
2018-11-04T15:08:42.138Z,6.90
2018-11-04T15:11:10.898Z,8.33
2018-11-04T15:13:39.928Z,6.30
2018-11-04T15:16:08.736Z,7.13
2018-11-04T15:18:37.652Z,10.17
2018-11-04T15:21:06.535Z,9.13
2018-11-04T15:23:35.345Z,7.33
2018-11-04T15:26:04.131Z,7.20
2018-11-04T15:28:33.171Z,8.47
2018-11-04T15:31:01.940Z,6.43
2018-11-04T15:33:30.729Z,7.33
2018-11-04T15:35:59.517Z,7.60
2018-11-04T15:38:28.344Z,8.87
2018-11-04T15:40:57.219Z,7.13
2018-11-04T15:43:26.034Z,13.07
2018-11-04T15:45:54.851Z,7.40
2018-11-04T15:48:23.695Z,9.17
2018-11-04T15:50:52.611Z,11.63
2018-11-04T15:53:21.419Z,9.93
2018-11-04T15:55:51.072Z,10.53
2018-11-04T15:58:19.935Z,7.93
2018-11-04T16:00:48.777Z,6.30
2018-11-04T16:03:17.559Z,6.20
2018-11-04T16:05:46.327Z,8.47
2018-11-04T16:08:15.346Z,10.07
2018-11-04T16:10:44.085Z,6.27
2018-11-04T16:13:12.882Z,7.37
2018-11-04T16:15:41.687Z,10.83
2018-11-04T16:18:10.763Z,9.57
2018-11-04T16:20:39.666Z,6.87
2018-11-04T16:23:08.455Z,6.43
2018-11-04T16:25:37.298Z,8.97
2018-11-04T16:28:06.706Z,7.00
2018-11-04T16:30:35.474Z,10.47
2018-11-04T16:33:04.264Z,8.33
2018-11-04T16:35:33.239Z,7.20
2018-11-04T16:38:02.404Z,7.27
2018-11-04T16:40:31.278Z,7.40
2018-11-04T16:43:00.019Z,10.00
2018-11-04T16:45:28.795Z,7.50
2018-11-04T16:47:58.131Z,9.23
2018-11-04T16:50:26.992Z,7.33
2018-11-04T16:52:55.830Z,14.50
2018-11-04T16:55:24.620Z,8.50
2018-11-04T16:57:53.399Z,8.80
2018-11-04T17:00:22.205Z,9.23
2018-11-04T17:02:51.079Z,8.70
2018-11-04T17:05:20.016Z,9.00
2018-11-04T17:07:48.947Z,11.50
2018-11-04T17:10:17.735Z,10.70
2018-11-04T17:12:46.905Z,11.23
2018-11-04T17:15:16.076Z,14.40
2018-11-04T17:17:45.044Z,11.83
2018-11-04T17:20:15.887Z,15.57
2018-11-04T17:22:45.084Z,12.53
2018-11-04T17:25:13.954Z,12.43
2018-11-04T17:27:42.922Z,12.73
2018-11-04T17:30:17.408Z,11.13
2018-11-04T17:32:46.568Z,13.67
2018-11-04T17:35:16.800Z,12.57
2018-11-04T17:37:46.455Z,14.03
2018-11-04T17:40:15.882Z,14.03
2018-11-04T17:42:44.806Z,13.40
2018-11-04T17:45:14.956Z,12.63
2018-11-04T17:47:44.180Z,17.17
2018-11-04T17:50:15.001Z,14.47
2018-11-04T17:52:44.293Z,13.40
2018-11-04T17:55:13.078Z,13.77
2018-11-04T17:57:41.879Z,13.30
2018-11-04T18:00:14.337Z,13.77
2018-11-04T18:02:43.734Z,15.43
2018-11-04T18:05:13.256Z,14.10
2018-11-04T18:07:43.314Z,16.57
2018-11-04T18:10:15.115Z,14.80
2018-11-04T18:12:44.052Z,14.90
2018-11-04T18:15:14.074Z,17.20
2018-11-04T18:17:42.863Z,17.87
2018-11-04T18:20:12.228Z,17.53
2018-11-04T18:22:41.045Z,15.77
2018-11-04T18:25:10.961Z,14.87
2018-11-04T18:27:46.626Z,16.17
2018-11-04T18:30:19.370Z,19.03
2018-11-04T18:32:48.159Z,16.93
2018-11-04T18:35:16.985Z,15.40
2018-11-04T18:37:45.791Z,13.03
2018-11-04T18:40:16.501Z,14.27
2018-11-04T18:42:45.846Z,14.77
2018-11-04T18:45:15.895Z,17.87
2018-11-04T18:47:45.083Z,16.13
2018-11-04T18:50:14.903Z,18.23
2018-11-04T18:52:43.939Z,16.57
2018-11-04T18:55:13.607Z,14.80
2018-11-04T18:57:43.220Z,20.10
2018-11-04T19:00:17.249Z,15.57
2018-11-04T19:02:46.614Z,14.83
2018-11-04T19:05:15.444Z,17.57
2018-11-04T19:07:44.509Z,18.80
2018-11-04T19:10:14.684Z,15.93
2018-11-04T19:12:43.933Z,15.60
2018-11-04T19:15:12.776Z,17.70
2018-11-04T19:17:41.630Z,20.30
2018-11-04T19:20:12.231Z,17.87
2018-11-04T19:22:41.158Z,21.13
2018-11-04T19:25:11.172Z,19.70
2018-11-04T19:27:40.146Z,20.90
2018-11-04T19:30:11.849Z,20.30
2018-11-04T19:32:40.711Z,19.90
2018-11-04T19:35:10.620Z,19.60
2018-11-04T19:37:39.791Z,27.53
2018-11-04T19:40:10.023Z,27.90
2018-11-04T19:42:39.161Z,27.90
2018-11-04T19:45:08.843Z,31.83
2018-11-04T19:47:38.608Z,33.13
2018-11-04T19:50:09.395Z,36.60
2018-11-04T19:52:38.205Z,33.90
2018-11-04T19:55:09.041Z,35.03
2018-11-04T19:57:37.814Z,33.97
2018-11-04T20:00:14.488Z,37.70
2018-11-04T20:02:43.261Z,40.57
2018-11-04T20:05:13.112Z,41.43
2018-11-04T20:07:42.156Z,33.87
2018-11-04T20:10:13.977Z,39.17
2018-11-04T20:12:48.026Z,36.43
2018-11-04T20:15:16.849Z,34.77
2018-11-04T20:17:46.223Z,31.30
2018-11-04T20:20:17.074Z,29.00
2018-11-04T20:22:45.999Z,25.80
2018-11-04T20:25:19.907Z,21.57
2018-11-04T20:27:49.718Z,27.27
2018-11-04T20:30:19.750Z,26.13
2018-11-04T20:32:53.806Z,23.83
2018-11-04T20:35:22.617Z,21.83
2018-11-04T20:37:51.381Z,26.30
2018-11-04T20:40:25.323Z,20.37
2018-11-04T20:42:54.155Z,27.93
2018-11-04T20:45:23.002Z,31.80
2018-11-04T20:47:57.012Z,29.23
2018-11-04T20:50:30.954Z,28.83
2018-11-04T20:52:59.777Z,29.20
2018-11-04T20:55:33.822Z,27.23
2018-11-04T20:58:02.717Z,25.33
2018-11-04T21:00:31.610Z,28.90
2018-11-04T21:03:00.439Z,25.73
2018-11-04T21:05:29.326Z,26.47
2018-11-04T21:07:58.162Z,24.47
2018-11-04T21:10:26.909Z,20.50
2018-11-04T21:12:55.678Z,20.10
2018-11-04T21:15:24.483Z,22.07
2018-11-04T21:17:53.266Z,23.73
2018-11-04T21:20:22.226Z,28.53
2018-11-04T21:22:51.065Z,23.10
2018-11-04T21:25:19.855Z,23.10
2018-11-04T21:27:48.921Z,24.67
2018-11-04T21:30:17.907Z,26.17
2018-11-04T21:32:46.701Z,24.03
2018-11-04T21:35:15.528Z,29.60
2018-11-04T21:37:44.752Z,29.43
2018-11-04T21:40:13.618Z,29.83
2018-11-04T21:42:42.728Z,30.93
2018-11-04T21:45:12.969Z,30.17
2018-11-04T21:47:41.987Z,25.30
2018-11-04T21:50:11.630Z,25.23
2018-11-04T21:52:40.585Z,25.20
2018-11-04T21:55:11.421Z,24.37
2018-11-04T21:57:41.335Z,18.70
2018-11-04T22:00:14.589Z,20.17
2018-11-04T22:02:43.598Z,18.67
2018-11-04T22:05:13.110Z,19.87
2018-11-04T22:07:43.124Z,21.17
2018-11-04T22:10:13.901Z,21.50
2018-11-04T22:12:43.005Z,21.07
2018-11-04T22:15:12.159Z,22.90
2018-11-04T22:17:41.764Z,20.80
2018-11-04T22:20:12.396Z,21.90
2018-11-04T22:22:41.279Z,24.27
2018-11-04T22:25:10.917Z,23.40
2018-11-04T22:27:39.745Z,21.60
2018-11-04T22:30:10.059Z,24.63
2018-11-04T22:32:39.494Z,20.93
2018-11-04T22:35:09.939Z,18.73
2018-11-04T22:37:39.006Z,16.70
2018-11-04T22:40:09.399Z,17.90
2018-11-04T22:42:38.313Z,22.83
2018-11-04T22:45:08.406Z,19.17
2018-11-04T22:47:37.226Z,19.37
2018-11-04T22:50:09.189Z,22.63
2018-11-04T22:52:38.141Z,21.63
2018-11-04T22:55:07.039Z,18.10
2018-11-04T22:57:35.839Z,14.93
2018-11-04T23:00:13.739Z,19.77
2018-11-04T23:02:42.636Z,14.47
2018-11-04T23:05:16.650Z,13.53
2018-11-04T23:07:45.833Z,14.23
2018-11-04T23:10:14.915Z,19.10
2018-11-04T23:12:43.666Z,14.57
2018-11-04T23:15:12.463Z,16.30
2018-11-04T23:17:41.226Z,18.90
2018-11-04T23:20:10.028Z,14.90
2018-11-04T23:22:38.964Z,15.13
2018-11-04T23:25:09.891Z,16.50
2018-11-04T23:27:38.959Z,15.27
2018-11-04T23:30:12.634Z,17.37
2018-11-04T23:32:41.677Z,15.87
2018-11-04T23:35:11.197Z,16.93
2018-11-04T23:37:40.162Z,15.87
2018-11-04T23:40:10.033Z,16.20
2018-11-04T23:42:38.840Z,18.20
2018-11-04T23:45:09.289Z,16.37
2018-11-04T23:47:38.415Z,17.30
2018-11-04T23:50:09.235Z,16.77
2018-11-04T23:52:38.055Z,23.53
2018-11-04T23:55:07.658Z,16.73
2018-11-04T23:57:36.462Z,17.47
